• Join FlightAware (Why Join?)
  • Login
  • US Flag 
10:34AM EST


 

Airport Tracker/Info


-or-


 

Live Flight TrackerFlight Track Log ✈ ASQ4273 ✈ 17-Aug-2013 ✈ KCHS - KCLE

Flight Track Log - Related Links

Times and Time Zones

All times are in EDT time to prevent confusion due to time zone crossing. See the ASQ4273 flight status page for this flight to view local times or setup timezone preferences in your user account.

Time Position Orientation Groundspeed Altitude Reporting Facility
EDT Latitude Longitude Course Direction KTS MPH feet Rate Location/Type
03:21PM 32.9681 -80.0775 309° West 188 216 3,000  Level Jacksonville Center
03:22PM 33.0294 -80.1078 338° Northwest 240 276 4,700 1,800 Climbing Jacksonville Center
03:23PM 33.2843 -80.2255 337° Northwest  Level FlightAware Approximate
03:23PM 33.0989 -80.1378 340° North 268 308 6,600  Level Jacksonville Center
03:24PM 33.3678 -80.3016 309° West  Level FlightAware Approximate
03:24PM 33.1664 -80.1703 338° Northwest 315 362 8,700  Level Jacksonville Center
03:25PM 33.4392 -80.3990 314° West  Level FlightAware Approximate
03:25PM 33.2339 -80.2056 336° Northwest 302 348 10,500  Level Jacksonville Center
03:26PM 33.5024 -80.5036 309° West  Level FlightAware Approximate
03:26PM 33.3183 -80.2478 337° Northwest 302 348 11,400  Level Jacksonville Center
03:27PM 33.3844 -80.3231 316° Northwest 310 357 12,500 1,080 Climbing Jacksonville Center
03:28PM 33.4489 -80.4131 311° West 333 383 13,600 1,140 Climbing Jacksonville Center
03:29PM 33.5417 -80.4656 335° Northwest 346 398 14,800 1,200 Climbing Jacksonville Center
03:30PM 33.6464 -80.4725 357° North 352 405 16,100 1,200 Climbing Jacksonville Center
03:31PM 33.7486 -80.4797 357° North 357 411 17,300 1,020 Climbing Jacksonville Center
03:32PM 33.8572 -80.4867 357° North 368 423 18,200 900 Climbing Jacksonville Center
03:33PM 33.9639 -80.4939 357° North 373 429 19,200 1,020 Climbing Jacksonville Center
03:34PM 34.0683 -80.5036 356° North 378 435 20,300 1,080 Climbing Jacksonville Center
03:35PM 34.1789 -80.5081 358° North 384 442 21,400 1,020 Climbing Jacksonville Center
03:36PM 34.2897 -80.5150 357° North 389 448 22,400 960 Climbing Jacksonville Center
03:37PM 34.4025 -80.5244 356° North 395 455 23,400 1,020 Climbing Jacksonville Center
03:39PM 34.6461 -80.5444 356° North 417 480 25,700 1,020 Climbing Atlanta Center
03:40PM 34.7714 -80.5492 358° North 411 473 26,700 780 Climbing Atlanta Center
03:41PM 34.8886 -80.5594 356° North 406 467 27,300 600 Climbing Atlanta Center
03:42PM 35.0078 -80.5647 358° North 412 474 27,900 600 Climbing Atlanta Center
03:43PM 35.1311 -80.5747 356° North 432 497 28,600 720 Climbing Atlanta Center
03:44PM 35.2544 -80.5822 357° North 442 509 29,400 780 Climbing Atlanta Center
03:45PM 35.3778 -80.5925 356° North 442 509 30,200 840 Climbing Atlanta Center
03:46PM 35.5011 -80.5975 358° North 442 509 31,100 900 Climbing Atlanta Center
03:47PM 35.6244 -80.6075 356° North 442 509 32,000 900 Climbing Atlanta Center
03:48PM 35.7497 -80.6178 356° North 442 509 33,000 900 Climbing Atlanta Center
03:49PM 35.8731 -80.6253 357° North 442 509 33,900 900 Climbing Atlanta Center
03:50PM 35.9964 -80.6331 357° North 442 509 34,900 540 Climbing Atlanta Center
03:51PM 36.1239 -80.6431 356° North 454 522 35,000  Climbing Atlanta Center
03:52PM 36.2536 -80.6531 356° North 462 532 35,000  Level Atlanta Center
03:53PM 36.3914 -80.6628 357° North 479 551 35,000  Level Atlanta Center
03:54PM 36.5147 -80.6731 356° North 484 557 35,000  Level Atlanta Center
03:55PM 36.6506 -80.6775 358° North 484 557 35,000  Level Atlanta Center
03:56PM 36.7822 -80.6928 355° North 477 549 35,000  Level Atlanta Center
03:57PM 36.9117 -80.7003 357° North 470 541 35,000  Level Atlanta Center
03:59PM 37.1622 -80.7744 347° North 455 524 35,000  Level Indianapolis Center
04:00PM 37.2658 -80.8592 327° Northwest 452 520 35,000  Level Indianapolis Center
04:01PM 37.3694 -80.9436 327° Northwest 453 521 35,000  Level Indianapolis Center
04:02PM 37.4731 -81.0289 327° Northwest 454 522 35,000  Level Indianapolis Center
04:03PM 37.6092 -81.1164 333° Northwest 471 542 35,000  Level Indianapolis Center
04:04PM 37.7369 -81.1603 345° North 487 560 35,000  Level Indianapolis Center
04:05PM 37.8572 -81.2017 345° North 481 554 35,000  Level Indianapolis Center
04:06PM 37.9858 -81.2461 345° North 480 552 35,000  Level Indianapolis Center
04:07PM 38.1400 -81.3000 345° North 479 551 35,000 -300 Level Indianapolis Center
04:08PM 38.2700 -81.3439 345° North 483 556 34,500 -540 Descending Indianapolis Center
04:09PM 38.3983 -81.3883 345° North 479 551 34,000 -300 Descending Indianapolis Center
04:10PM 38.5286 -81.4336 345° North 484 557 34,000  Level Indianapolis Center
04:11PM 38.6714 -81.4850 344° North 488 562 34,000  Level Indianapolis Center
04:12PM 38.8014 -81.5314 344° North 487 560 34,000  Level Indianapolis Center
04:13PM 38.9369 -81.5772 345° North 490 564 34,000  Level Indianapolis Center
04:14PM 39.0672 -81.6239 344° North 486 559 34,000 -420 Level Indianapolis Center
04:15PM 39.1964 -81.6683 345° North 481 554 33,200 -1,080 Descending Indianapolis Center
04:16PM 39.3203 -81.7136 344° North 466 536 31,900 -1,320 Descending Indianapolis Center
04:17PM 39.4411 -81.7572 344° North 453 521 30,600 -1,380 Descending Indianapolis Center
04:18PM 39.5600 -81.8003 344° North 444 511 29,100 -1,560 Descending Indianapolis Center
04:19PM 39.6786 -81.8417 345° North 441 507 27,500 -1,860 Descending Indianapolis Center
04:20PM 39.8047 -81.8883 344° North 448 516 25,400 -2,340 Descending Indianapolis Center
04:21PM 39.9447 -81.9392 344° North 445 512 22,800 -2,220 Descending Indianapolis Center
04:22PM 40.0628 -81.9803 345° North 438 504 20,900 -1,860 Descending Indianapolis Center
04:23PM 40.1819 -82.0247 344° North 442 509 19,000 -1,740 Descending Indianapolis Center
04:24PM 40.2892 -82.0653 344° North 430 495 17,400 -1,740 Descending Indianapolis Center
04:26PM 40.3986 -82.1047 345° North 410 472 15,500 -960 Descending Indianapolis Center
04:27PM 40.5539 -82.0342 19° North 377 434 15,000 -300 Descending Cleveland Center
04:28PM 40.5978 -81.9892 38° Northeast 402 463 14,900 -780 Descending Indianapolis Center
04:29PM 40.6997 -81.8853 38° Northeast 395 455 13,800 -1,200 Descending Indianapolis Center
04:29PM 40.7756 -81.8114 36° Northeast 395 455 12,700 -1,260 Descending Cleveland Center
04:30PM 40.8178 -81.7683 38° Northeast 393 452 12,000 -1,500 Descending Cleveland Center
04:31PM 40.8869 -81.7228 26° Northeast 379 436 10,900 -1,200 Descending Cleveland Center
04:32PM 40.9844 -81.7658 342° North 369 425 10,000 -480 Descending Cleveland Center
04:33PM 41.0797 -81.8172 338° Northwest 320 368 9,900 -900 Descending Cleveland Center
04:34PM 41.1544 -81.8572 338° Northwest 273 314 8,200 -1,680 Descending Cleveland Center
04:35PM 41.2350 -81.9194 330° Northwest 272 313 6,200 -1,680 Descending Cleveland Center
04:36PM 41.2761 -81.9700 317° Northwest 230 265 4,900 -1,620 Descending Cleveland Center
04:37PM 41.3239 -81.9878 344° North 196 226 3,300 -1,380 Descending Cleveland Center
04:38PM 41.3578 -81.9386 47° Northeast 165 190 2,100 -960 Descending Cleveland Center
04:39PM 41.3811 -81.9003 51° Northeast 129 148 1,400 -720 Descending Cleveland Center